Terminal Aerodrome Forecast
Issued by NWS Wilmington, OH

Home | Current Version | Previous Version | Text Only | Print | Product List | Glossary On
Versions: 1 2 3 4 5 6 7 8 9 10 11 12 13 14 15 16 17 18 19 20 21 22 23 24 25 26 27 28 29 30 31
000
FTUS41 KILN 010600 AAA
TAFCVG
TAF AMD
KCVG 010653Z 0107/0212 16004KT P6SM SCT025 OVC090
      TEMPO 0107/0108 BKN025
     FM011200 14006KT P6SM OVC080
     FM012000 16012KT 4SM -RA BR OVC025
     FM020100 19011KT 2SM -RA BR OVC008
     FM020600 24010KT 5SM -SN OVC012
     FM020900 29015G25KT P6SM -SHSN OVC018=

USA.gov is the U.S. government's official web portal to all federal, state and local government web resources and services.